sensor_id;sensor_type;location;lat;lon;timestamp;temperature;humidity
5200;DHT22;2619;47.868;11.892;2023-07-13T00:02:06;17.10;99.90
5200;DHT22;2619;47.868;11.892;2023-07-13T00:04:32;17.10;99.90
5200;DHT22;2619;47.868;11.892;2023-07-13T00:06:57;17.10;99.90
5200;DHT22;2619;47.868;11.892;2023-07-13T00:09:23;17.10;99.90
5200;DHT22;2619;47.868;11.892;2023-07-13T00:11:54;17.10;99.90
5200;DHT22;2619;47.868;11.892;2023-07-13T00:14:20;17.10;99.90
5200;DHT22;2619;47.868;11.892;2023-07-13T00:16:46;17.10;99.90
5200;DHT22;2619;47.868;11.892;2023-07-13T00:19:12;17.20;99.90
5200;DHT22;2619;47.868;11.892;2023-07-13T00:21:42;17.10;99.90
5200;DHT22;2619;47.868;11.892;2023-07-13T00:24:11;17.10;99.90
5200;DHT22;2619;47.868;11.892;2023-07-13T00:26:41;17.10;99.90
5200;DHT22;2619;47.868;11.892;2023-07-13T00:29:10;17.10;99.90
5200;DHT22;2619;47.868;11.892;2023-07-13T00:31:36;17.10;99.90
5200;DHT22;2619;47.868;11.892;2023-07-13T00:34:02;17.10;99.90
5200;DHT22;2619;47.868;11.892;2023-07-13T00:36:29;17.10;99.90
5200;DHT22;2619;47.868;11.892;2023-07-13T00:38:55;17.10;99.90
5200;DHT22;2619;47.868;11.892;2023-07-13T00:41:20;17.10;99.90
5200;DHT22;2619;47.868;11.892;2023-07-13T00:43:46;17.10;99.90
5200;DHT22;2619;47.868;11.892;2023-07-13T00:46:16;17.10;99.90
5200;DHT22;2619;47.868;11.892;2023-07-13T00:48:44;17.10;99.90
5200;DHT22;2619;47.868;11.892;2023-07-13T00:51:11;17.10;99.90
5200;DHT22;2619;47.868;11.892;2023-07-13T00:53:38;17.10;99.90
5200;DHT22;2619;47.868;11.892;2023-07-13T00:56:04;17.10;99.90
5200;DHT22;2619;47.868;11.892;2023-07-13T00:58:30;17.10;99.90
5200;DHT22;2619;47.868;11.892;2023-07-13T01:00:56;17.00;99.90
5200;DHT22;2619;47.868;11.892;2023-07-13T01:03:22;17.00;99.90
5200;DHT22;2619;47.868;11.892;2023-07-13T01:05:49;17.10;99.90
5200;DHT22;2619;47.868;11.892;2023-07-13T01:08:15;17.10;99.90
5200;DHT22;2619;47.868;11.892;2023-07-13T01:10:50;17.00;99.90
5200;DHT22;2619;47.868;11.892;2023-07-13T01:13:15;17.00;99.90
5200;DHT22;2619;47.868;11.892;2023-07-13T01:15:45;17.00;99.90
5200;DHT22;2619;47.868;11.892;2023-07-13T01:18:14;17.00;99.90
5200;DHT22;2619;47.868;11.892;2023-07-13T01:20:40;17.00;99.90
5200;DHT22;2619;47.868;11.892;2023-07-13T01:23:09;17.00;99.90
5200;DHT22;2619;47.868;11.892;2023-07-13T01:25:36;17.00;99.90
5200;DHT22;2619;47.868;11.892;2023-07-13T01:28:03;16.90;99.90
5200;DHT22;2619;47.868;11.892;2023-07-13T01:30:29;16.90;99.90
5200;DHT22;2619;47.868;11.892;2023-07-13T01:32:55;16.90;99.90
5200;DHT22;2619;47.868;11.892;2023-07-13T01:35:20;16.90;99.90
5200;DHT22;2619;47.868;11.892;2023-07-13T01:37:46;16.90;99.90
5200;DHT22;2619;47.868;11.892;2023-07-13T01:40:12;16.90;99.90
5200;DHT22;2619;47.868;11.892;2023-07-13T01:42:38;16.80;99.90
5200;DHT22;2619;47.868;11.892;2023-07-13T01:45:04;16.80;99.90
5200;DHT22;2619;47.868;11.892;2023-07-13T01:47:30;16.80;99.90
5200;DHT22;2619;47.868;11.892;2023-07-13T01:49:57;16.80;99.90
5200;DHT22;2619;47.868;11.892;2023-07-13T01:52:23;16.80;99.90
5200;DHT22;2619;47.868;11.892;2023-07-13T01:54:48;16.80;99.90
5200;DHT22;2619;47.868;11.892;2023-07-13T01:57:14;16.80;99.90
5200;DHT22;2619;47.868;11.892;2023-07-13T01:59:40;16.70;99.90
5200;DHT22;2619;47.868;11.892;2023-07-13T02:02:06;16.70;99.90
5200;DHT22;2619;47.868;11.892;2023-07-13T02:04:31;16.70;99.90
5200;DHT22;2619;47.868;11.892;2023-07-13T02:06:57;16.70;99.90
5200;DHT22;2619;47.868;11.892;2023-07-13T02:09:23;16.60;99.90
5200;DHT22;2619;47.868;11.892;2023-07-13T02:11:48;16.60;99.90
5200;DHT22;2619;47.868;11.892;2023-07-13T02:14:14;16.70;99.90
5200;DHT22;2619;47.868;11.892;2023-07-13T02:16:41;16.60;99.90
5200;DHT22;2619;47.868;11.892;2023-07-13T02:19:07;16.60;99.90
5200;DHT22;2619;47.868;11.892;2023-07-13T02:21:33;16.50;99.90
5200;DHT22;2619;47.868;11.892;2023-07-13T02:23:59;16.50;99.90
5200;DHT22;2619;47.868;11.892;2023-07-13T02:26:25;16.50;99.90
5200;DHT22;2619;47.868;11.892;2023-07-13T02:28:51;16.50;99.90
5200;DHT22;2619;47.868;11.892;2023-07-13T02:31:17;16.50;99.90
5200;DHT22;2619;47.868;11.892;2023-07-13T02:33:42;16.50;99.90
5200;DHT22;2619;47.868;11.892;2023-07-13T02:36:09;16.50;99.90
5200;DHT22;2619;47.868;11.892;2023-07-13T02:38:35;16.50;99.90
5200;DHT22;2619;47.868;11.892;2023-07-13T02:41:03;16.60;99.90
5200;DHT22;2619;47.868;11.892;2023-07-13T02:43:28;16.50;99.90
5200;DHT22;2619;47.868;11.892;2023-07-13T02:45:55;16.60;99.90
5200;DHT22;2619;47.868;11.892;2023-07-13T02:48:20;16.70;99.90
5200;DHT22;2619;47.868;11.892;2023-07-13T02:50:46;16.70;99.90
5200;DHT22;2619;47.868;11.892;2023-07-13T02:53:12;16.60;99.90
5200;DHT22;2619;47.868;11.892;2023-07-13T02:55:37;16.70;99.90
5200;DHT22;2619;47.868;11.892;2023-07-13T02:58:03;16.60;99.90
5200;DHT22;2619;47.868;11.892;2023-07-13T03:00:28;16.60;99.90
5200;DHT22;2619;47.868;11.892;2023-07-13T03:02:54;16.60;99.90
5200;DHT22;2619;47.868;11.892;2023-07-13T03:05:23;16.70;99.90
5200;DHT22;2619;47.868;11.892;2023-07-13T03:07:48;16.60;99.90
5200;DHT22;2619;47.868;11.892;2023-07-13T03:10:14;16.70;99.90
5200;DHT22;2619;47.868;11.892;2023-07-13T03:12:40;16.70;99.90
5200;DHT22;2619;47.868;11.892;2023-07-13T03:15:06;16.70;99.90
5200;DHT22;2619;47.868;11.892;2023-07-13T03:17:31;16.70;99.90
5200;DHT22;2619;47.868;11.892;2023-07-13T03:19:57;16.70;99.90
5200;DHT22;2619;47.868;11.892;2023-07-13T03:22:23;16.70;99.90
5200;DHT22;2619;47.868;11.892;2023-07-13T03:24:48;16.70;99.90
5200;DHT22;2619;47.868;11.892;2023-07-13T03:27:16;16.80;99.90
5200;DHT22;2619;47.868;11.892;2023-07-13T03:29:42;16.80;99.90
5200;DHT22;2619;47.868;11.892;2023-07-13T03:32:08;16.90;99.90
5200;DHT22;2619;47.868;11.892;2023-07-13T03:34:33;16.90;99.90
5200;DHT22;2619;47.868;11.892;2023-07-13T03:36:59;16.90;99.90
5200;DHT22;2619;47.868;11.892;2023-07-13T03:39:24;16.90;99.90
5200;DHT22;2619;47.868;11.892;2023-07-13T03:41:50;17.00;99.90
5200;DHT22;2619;47.868;11.892;2023-07-13T03:44:16;17.00;99.90
5200;DHT22;2619;47.868;11.892;2023-07-13T03:46:42;17.00;99.90
5200;DHT22;2619;47.868;11.892;2023-07-13T03:49:08;17.00;99.90
5200;DHT22;2619;47.868;11.892;2023-07-13T03:51:33;17.10;99.90
5200;DHT22;2619;47.868;11.892;2023-07-13T03:53:59;17.10;99.90
5200;DHT22;2619;47.868;11.892;2023-07-13T03:56:24;17.00;99.90
5200;DHT22;2619;47.868;11.892;2023-07-13T03:58:50;17.00;99.90
5200;DHT22;2619;47.868;11.892;2023-07-13T04:01:18;17.00;99.90
5200;DHT22;2619;47.868;11.892;2023-07-13T04:03:44;17.00;99.90
5200;DHT22;2619;47.868;11.892;2023-07-13T04:06:21;17.10;99.90
5200;DHT22;2619;47.868;11.892;2023-07-13T04:08:49;17.10;99.90
5200;DHT22;2619;47.868;11.892;2023-07-13T04:11:16;17.00;99.90
5200;DHT22;2619;47.868;11.892;2023-07-13T04:13:41;17.00;99.90
5200;DHT22;2619;47.868;11.892;2023-07-13T04:16:07;17.00;99.90
5200;DHT22;2619;47.868;11.892;2023-07-13T04:18:33;17.00;99.90
5200;DHT22;2619;47.868;11.892;2023-07-13T04:20:58;16.90;99.90
5200;DHT22;2619;47.868;11.892;2023-07-13T04:23:24;16.90;99.90
5200;DHT22;2619;47.868;11.892;2023-07-13T04:25:52;16.90;99.90
5200;DHT22;2619;47.868;11.892;2023-07-13T04:28:23;16.90;99.90
5200;DHT22;2619;47.868;11.892;2023-07-13T04:30:50;16.80;99.90
5200;DHT22;2619;47.868;11.892;2023-07-13T04:33:16;16.80;99.90
5200;DHT22;2619;47.868;11.892;2023-07-13T04:35:43;16.90;99.90
5200;DHT22;2619;47.868;11.892;2023-07-13T04:38:09;16.80;99.90
5200;DHT22;2619;47.868;11.892;2023-07-13T04:40:36;16.90;99.90
5200;DHT22;2619;47.868;11.892;2023-07-13T04:43:02;16.90;99.90
5200;DHT22;2619;47.868;11.892;2023-07-13T04:45:28;16.90;99.90
5200;DHT22;2619;47.868;11.892;2023-07-13T04:47:53;16.90;99.90
5200;DHT22;2619;47.868;11.892;2023-07-13T04:50:19;16.80;99.90
5200;DHT22;2619;47.868;11.892;2023-07-13T04:52:51;16.80;99.90
5200;DHT22;2619;47.868;11.892;2023-07-13T04:55:17;16.90;99.90
5200;DHT22;2619;47.868;11.892;2023-07-13T04:57:44;16.90;99.90
5200;DHT22;2619;47.868;11.892;2023-07-13T05:00:11;16.90;99.90
5200;DHT22;2619;47.868;11.892;2023-07-13T05:02:38;16.90;99.90
5200;DHT22;2619;47.868;11.892;2023-07-13T05:05:05;17.00;99.90
5200;DHT22;2619;47.868;11.892;2023-07-13T05:07:30;17.00;99.90
5200;DHT22;2619;47.868;11.892;2023-07-13T05:09:58;17.10;99.90
5200;DHT22;2619;47.868;11.892;2023-07-13T05:12:25;17.10;99.90
5200;DHT22;2619;47.868;11.892;2023-07-13T05:14:50;17.20;99.90
5200;DHT22;2619;47.868;11.892;2023-07-13T05:17:16;17.20;99.90
5200;DHT22;2619;47.868;11.892;2023-07-13T05:19:42;17.20;99.90
5200;DHT22;2619;47.868;11.892;2023-07-13T05:22:07;17.20;99.90
5200;DHT22;2619;47.868;11.892;2023-07-13T05:24:33;17.20;99.90
5200;DHT22;2619;47.868;11.892;2023-07-13T05:26:59;17.20;99.90
5200;DHT22;2619;47.868;11.892;2023-07-13T05:29:24;17.30;99.90
5200;DHT22;2619;47.868;11.892;2023-07-13T05:31:50;17.30;99.90
5200;DHT22;2619;47.868;11.892;2023-07-13T05:34:16;17.40;99.90
5200;DHT22;2619;47.868;11.892;2023-07-13T05:36:42;17.30;99.90
5200;DHT22;2619;47.868;11.892;2023-07-13T05:39:07;17.30;99.90
5200;DHT22;2619;47.868;11.892;2023-07-13T05:41:33;17.30;99.90
5200;DHT22;2619;47.868;11.892;2023-07-13T05:43:59;17.40;99.90
5200;DHT22;2619;47.868;11.892;2023-07-13T05:46:25;17.50;99.90
5200;DHT22;2619;47.868;11.892;2023-07-13T05:48:50;17.60;99.90
5200;DHT22;2619;47.868;11.892;2023-07-13T05:51:16;17.70;99.90
5200;DHT22;2619;47.868;11.892;2023-07-13T05:53:41;17.70;99.90
5200;DHT22;2619;47.868;11.892;2023-07-13T05:56:07;17.50;99.90
5200;DHT22;2619;47.868;11.892;2023-07-13T05:58:33;17.50;99.90
5200;DHT22;2619;47.868;11.892;2023-07-13T06:01:04;17.50;99.90
5200;DHT22;2619;47.868;11.892;2023-07-13T06:03:30;17.50;99.90
5200;DHT22;2619;47.868;11.892;2023-07-13T06:05:56;17.50;99.90
5200;DHT22;2619;47.868;11.892;2023-07-13T06:08:21;17.50;99.90
5200;DHT22;2619;47.868;11.892;2023-07-13T06:10:47;17.50;99.90
5200;DHT22;2619;47.868;11.892;2023-07-13T06:13:13;17.50;99.90
5200;DHT22;2619;47.868;11.892;2023-07-13T06:15:38;17.50;99.90
5200;DHT22;2619;47.868;11.892;2023-07-13T06:18:04;17.40;99.90
5200;DHT22;2619;47.868;11.892;2023-07-13T06:20:30;17.30;99.90
5200;DHT22;2619;47.868;11.892;2023-07-13T06:22:55;17.40;99.90
5200;DHT22;2619;47.868;11.892;2023-07-13T06:25:21;17.50;99.90
5200;DHT22;2619;47.868;11.892;2023-07-13T06:27:46;17.60;99.90
5200;DHT22;2619;47.868;11.892;2023-07-13T06:30:12;17.80;99.90
5200;DHT22;2619;47.868;11.892;2023-07-13T06:32:38;17.90;99.90
5200;DHT22;2619;47.868;11.892;2023-07-13T06:35:04;18.00;99.90
5200;DHT22;2619;47.868;11.892;2023-07-13T06:37:29;18.10;99.90
5200;DHT22;2619;47.868;11.892;2023-07-13T06:39:55;18.20;99.90
5200;DHT22;2619;47.868;11.892;2023-07-13T06:42:20;18.30;99.90
5200;DHT22;2619;47.868;11.892;2023-07-13T06:44:46;18.40;99.90
5200;DHT22;2619;47.868;11.892;2023-07-13T06:47:12;18.60;99.90
5200;DHT22;2619;47.868;11.892;2023-07-13T06:49:37;18.70;99.90
5200;DHT22;2619;47.868;11.892;2023-07-13T06:52:03;18.80;99.90
5200;DHT22;2619;47.868;11.892;2023-07-13T06:54:29;18.80;99.90
5200;DHT22;2619;47.868;11.892;2023-07-13T06:56:55;18.70;99.90
5200;DHT22;2619;47.868;11.892;2023-07-13T06:59:20;18.70;99.90
5200;DHT22;2619;47.868;11.892;2023-07-13T07:01:46;18.80;99.90
5200;DHT22;2619;47.868;11.892;2023-07-13T07:04:11;18.90;99.90
5200;DHT22;2619;47.868;11.892;2023-07-13T07:06:37;18.90;99.90
5200;DHT22;2619;47.868;11.892;2023-07-13T07:09:03;19.20;99.90
5200;DHT22;2619;47.868;11.892;2023-07-13T07:11:29;19.30;99.90
5200;DHT22;2619;47.868;11.892;2023-07-13T07:13:54;19.50;99.90
5200;DHT22;2619;47.868;11.892;2023-07-13T07:16:20;19.60;99.90
5200;DHT22;2619;47.868;11.892;2023-07-13T07:18:46;19.80;99.90
5200;DHT22;2619;47.868;11.892;2023-07-13T07:21:13;20.00;99.90
5200;DHT22;2619;47.868;11.892;2023-07-13T07:23:39;20.20;99.90
5200;DHT22;2619;47.868;11.892;2023-07-13T07:26:05;20.30;99.90
5200;DHT22;2619;47.868;11.892;2023-07-13T07:28:30;20.50;99.90
5200;DHT22;2619;47.868;11.892;2023-07-13T07:30:57;20.50;99.90
5200;DHT22;2619;47.868;11.892;2023-07-13T07:33:24;20.50;99.90
5200;DHT22;2619;47.868;11.892;2023-07-13T07:35:50;20.50;99.90
5200;DHT22;2619;47.868;11.892;2023-07-13T07:38:16;20.70;99.90
5200;DHT22;2619;47.868;11.892;2023-07-13T07:40:42;20.80;99.90
5200;DHT22;2619;47.868;11.892;2023-07-13T07:43:10;20.90;99.90
5200;DHT22;2619;47.868;11.892;2023-07-13T07:45:36;20.70;99.90
5200;DHT22;2619;47.868;11.892;2023-07-13T07:48:03;20.60;99.90
5200;DHT22;2619;47.868;11.892;2023-07-13T07:50:29;20.50;99.90
5200;DHT22;2619;47.868;11.892;2023-07-13T07:52:55;20.30;99.90
5200;DHT22;2619;47.868;11.892;2023-07-13T07:55:24;20.20;99.90
5200;DHT22;2619;47.868;11.892;2023-07-13T07:57:53;20.10;99.90
5200;DHT22;2619;47.868;11.892;2023-07-13T08:00:19;20.00;99.90
5200;DHT22;2619;47.868;11.892;2023-07-13T08:02:45;20.10;99.90
5200;DHT22;2619;47.868;11.892;2023-07-13T08:05:11;20.20;99.90
5200;DHT22;2619;47.868;11.892;2023-07-13T08:07:37;20.30;99.90
5200;DHT22;2619;47.868;11.892;2023-07-13T08:10:04;20.30;99.90
5200;DHT22;2619;47.868;11.892;2023-07-13T08:12:30;20.40;99.90
5200;DHT22;2619;47.868;11.892;2023-07-13T08:14:58;20.50;99.90
5200;DHT22;2619;47.868;11.892;2023-07-13T08:17:26;20.60;99.90
5200;DHT22;2619;47.868;11.892;2023-07-13T08:19:51;20.80;99.90
5200;DHT22;2619;47.868;11.892;2023-07-13T08:22:17;21.00;99.90
5200;DHT22;2619;47.868;11.892;2023-07-13T08:24:42;21.00;99.90
5200;DHT22;2619;47.868;11.892;2023-07-13T08:27:09;20.90;99.90
5200;DHT22;2619;47.868;11.892;2023-07-13T08:29:36;20.90;99.90
5200;DHT22;2619;47.868;11.892;2023-07-13T08:32:02;21.00;99.90
5200;DHT22;2619;47.868;11.892;2023-07-13T08:34:28;20.80;99.90
5200;DHT22;2619;47.868;11.892;2023-07-13T08:36:53;20.60;99.90
5200;DHT22;2619;47.868;11.892;2023-07-13T08:39:19;20.40;99.90
5200;DHT22;2619;47.868;11.892;2023-07-13T08:41:51;20.40;99.90
5200;DHT22;2619;47.868;11.892;2023-07-13T08:44:29;20.30;99.90
5200;DHT22;2619;47.868;11.892;2023-07-13T08:46:58;20.30;99.90
5200;DHT22;2619;47.868;11.892;2023-07-13T08:49:25;20.10;99.90
5200;DHT22;2619;47.868;11.892;2023-07-13T08:54:37;19.90;99.90
5200;DHT22;2619;47.868;11.892;2023-07-13T08:57:13;19.90;99.90
5200;DHT22;2619;47.868;11.892;2023-07-13T08:59:39;19.70;99.90
5200;DHT22;2619;47.868;11.892;2023-07-13T09:04:48;19.80;99.90
5200;DHT22;2619;47.868;11.892;2023-07-13T09:07:21;19.90;99.90
5200;DHT22;2619;47.868;11.892;2023-07-13T09:15:39;19.90;99.90
5200;DHT22;2619;47.868;11.892;2023-07-13T09:18:16;19.80;99.90
5200;DHT22;2619;47.868;11.892;2023-07-13T09:23:23;19.60;99.90
5200;DHT22;2619;47.868;11.892;2023-07-13T09:25:54;19.40;99.90
5200;DHT22;2619;47.868;11.892;2023-07-13T09:28:26;19.30;99.90
5200;DHT22;2619;47.868;11.892;2023-07-13T09:31:00;19.20;99.90
5200;DHT22;2619;47.868;11.892;2023-07-13T09:33:28;18.90;99.90
5200;DHT22;2619;47.868;11.892;2023-07-13T09:35:58;18.60;99.90
5200;DHT22;2619;47.868;11.892;2023-07-13T09:38:26;18.50;99.90
5200;DHT22;2619;47.868;11.892;2023-07-13T09:43:28;18.40;99.90
5200;DHT22;2619;47.868;11.892;2023-07-13T09:45:54;18.40;99.90
5200;DHT22;2619;47.868;11.892;2023-07-13T09:48:20;18.40;99.90
5200;DHT22;2619;47.868;11.892;2023-07-13T09:50:47;18.50;99.90
5200;DHT22;2619;47.868;11.892;2023-07-13T09:53:18;18.50;99.90
5200;DHT22;2619;47.868;11.892;2023-07-13T09:55:46;18.60;99.90
5200;DHT22;2619;47.868;11.892;2023-07-13T09:58:19;18.80;99.90
5200;DHT22;2619;47.868;11.892;2023-07-13T10:00:58;18.80;99.90
5200;DHT22;2619;47.868;11.892;2023-07-13T10:03:30;18.70;99.90
5200;DHT22;2619;47.868;11.892;2023-07-13T10:06:11;18.60;99.90
5200;DHT22;2619;47.868;11.892;2023-07-13T10:08:37;18.60;99.90
5200;DHT22;2619;47.868;11.892;2023-07-13T10:11:27;18.50;99.90
5200;DHT22;2619;47.868;11.892;2023-07-13T10:14:02;18.30;99.90
5200;DHT22;2619;47.868;11.892;2023-07-13T10:16:31;18.10;99.90
5200;DHT22;2619;47.868;11.892;2023-07-13T10:19:16;17.90;99.90
5200;DHT22;2619;47.868;11.892;2023-07-13T10:22:00;17.80;99.90
5200;DHT22;2619;47.868;11.892;2023-07-13T10:24:33;17.70;99.90
5200;DHT22;2619;47.868;11.892;2023-07-13T10:27:16;17.60;99.90
5200;DHT22;2619;47.868;11.892;2023-07-13T10:29:47;17.40;99.90
5200;DHT22;2619;47.868;11.892;2023-07-13T10:32:14;17.30;99.90
5200;DHT22;2619;47.868;11.892;2023-07-13T10:34:44;17.20;99.90
5200;DHT22;2619;47.868;11.892;2023-07-13T10:37:26;17.20;99.90
5200;DHT22;2619;47.868;11.892;2023-07-13T10:39:55;17.10;99.90
5200;DHT22;2619;47.868;11.892;2023-07-13T10:42:28;17.10;99.90
5200;DHT22;2619;47.868;11.892;2023-07-13T10:44:54;17.10;99.90
5200;DHT22;2619;47.868;11.892;2023-07-13T10:47:20;17.00;99.90
5200;DHT22;2619;47.868;11.892;2023-07-13T10:49:47;17.10;99.90
5200;DHT22;2619;47.868;11.892;2023-07-13T10:52:41;17.20;99.90
5200;DHT22;2619;47.868;11.892;2023-07-13T10:56:15;17.40;99.90
5200;DHT22;2619;47.868;11.892;2023-07-13T11:01:10;18.30;99.90
5200;DHT22;2619;47.868;11.892;2023-07-13T11:03:46;18.80;99.90
5200;DHT22;2619;47.868;11.892;2023-07-13T11:18:51;20.60;99.90
5200;DHT22;2619;47.868;11.892;2023-07-13T11:21:22;20.50;99.90
5200;DHT22;2619;47.868;11.892;2023-07-13T11:24:03;20.60;99.90
5200;DHT22;2619;47.868;11.892;2023-07-13T11:31:57;20.90;99.90
5200;DHT22;2619;47.868;11.892;2023-07-13T11:34:44;21.10;99.90
5200;DHT22;2619;47.868;11.892;2023-07-13T11:37:15;21.50;99.90
5200;DHT22;2619;47.868;11.892;2023-07-13T11:39:44;21.70;99.90
5200;DHT22;2619;47.868;11.892;2023-07-13T11:42:13;21.90;99.90
5200;DHT22;2619;47.868;11.892;2023-07-13T11:44:45;22.20;99.90
5200;DHT22;2619;47.868;11.892;2023-07-13T11:47:16;22.60;99.90
5200;DHT22;2619;47.868;11.892;2023-07-13T11:49:49;22.60;99.90
5200;DHT22;2619;47.868;11.892;2023-07-13T11:52:17;22.60;99.90
5200;DHT22;2619;47.868;11.892;2023-07-13T11:54:48;22.90;99.90
5200;DHT22;2619;47.868;11.892;2023-07-13T11:57:30;22.90;99.90
5200;DHT22;2619;47.868;11.892;2023-07-13T11:59:58;22.90;99.90
5200;DHT22;2619;47.868;11.892;2023-07-13T12:02:34;22.90;99.90
5200;DHT22;2619;47.868;11.892;2023-07-13T12:05:02;23.00;99.90
5200;DHT22;2619;47.868;11.892;2023-07-13T12:07:31;23.10;99.90
5200;DHT22;2619;47.868;11.892;2023-07-13T12:10:02;23.20;99.90
5200;DHT22;2619;47.868;11.892;2023-07-13T12:12:29;23.40;99.90
5200;DHT22;2619;47.868;11.892;2023-07-13T12:14:55;23.40;99.90
5200;DHT22;2619;47.868;11.892;2023-07-13T12:17:23;23.60;99.90
5200;DHT22;2619;47.868;11.892;2023-07-13T12:19:51;23.70;99.90
5200;DHT22;2619;47.868;11.892;2023-07-13T12:22:19;23.60;99.90
5200;DHT22;2619;47.868;11.892;2023-07-13T12:24:46;23.40;99.90
5200;DHT22;2619;47.868;11.892;2023-07-13T12:27:28;23.60;99.90
5200;DHT22;2619;47.868;11.892;2023-07-13T12:30:06;23.70;99.90
5200;DHT22;2619;47.868;11.892;2023-07-13T12:32:56;23.80;99.90
5200;DHT22;2619;47.868;11.892;2023-07-13T12:35:22;24.00;99.90
5200;DHT22;2619;47.868;11.892;2023-07-13T12:37:48;24.00;99.90
5200;DHT22;2619;47.868;11.892;2023-07-13T12:40:19;23.90;99.90
5200;DHT22;2619;47.868;11.892;2023-07-13T12:42:47;24.00;99.90
5200;DHT22;2619;47.868;11.892;2023-07-13T12:45:23;23.90;99.90
5200;DHT22;2619;47.868;11.892;2023-07-13T12:47:54;23.80;99.90
5200;DHT22;2619;47.868;11.892;2023-07-13T12:50:22;23.80;99.90
5200;DHT22;2619;47.868;11.892;2023-07-13T12:52:53;23.80;99.90
5200;DHT22;2619;47.868;11.892;2023-07-13T12:55:21;23.90;99.90
5200;DHT22;2619;47.868;11.892;2023-07-13T12:57:57;23.80;99.90
5200;DHT22;2619;47.868;11.892;2023-07-13T13:00:30;23.80;99.90
5200;DHT22;2619;47.868;11.892;2023-07-13T13:03:02;24.00;99.90
5200;DHT22;2619;47.868;11.892;2023-07-13T13:05:29;24.30;99.90
5200;DHT22;2619;47.868;11.892;2023-07-13T13:07:55;24.20;99.90
5200;DHT22;2619;47.868;11.892;2023-07-13T13:10:21;24.30;99.90
5200;DHT22;2619;47.868;11.892;2023-07-13T13:12:47;24.40;99.90
5200;DHT22;2619;47.868;11.892;2023-07-13T13:15:13;24.40;99.90
5200;DHT22;2619;47.868;11.892;2023-07-13T13:17:39;24.40;99.90
5200;DHT22;2619;47.868;11.892;2023-07-13T13:20:19;24.20;99.90
5200;DHT22;2619;47.868;11.892;2023-07-13T13:22:46;24.40;99.90
5200;DHT22;2619;47.868;11.892;2023-07-13T13:25:13;24.50;99.90
5200;DHT22;2619;47.868;11.892;2023-07-13T13:27:41;24.60;99.90
5200;DHT22;2619;47.868;11.892;2023-07-13T13:30:15;24.60;99.90
5200;DHT22;2619;47.868;11.892;2023-07-13T13:32:43;24.70;99.90
5200;DHT22;2619;47.868;11.892;2023-07-13T13:35:27;24.70;99.90
5200;DHT22;2619;47.868;11.892;2023-07-13T13:37:53;24.70;99.90
5200;DHT22;2619;47.868;11.892;2023-07-13T13:40:21;24.90;99.90
5200;DHT22;2619;47.868;11.892;2023-07-13T13:42:48;24.70;99.90
5200;DHT22;2619;47.868;11.892;2023-07-13T13:45:14;25.00;99.90
5200;DHT22;2619;47.868;11.892;2023-07-13T13:47:42;25.00;99.30
5200;DHT22;2619;47.868;11.892;2023-07-13T13:50:20;25.00;99.90
5200;DHT22;2619;47.868;11.892;2023-07-13T13:52:47;25.10;99.20
5200;DHT22;2619;47.868;11.892;2023-07-13T13:55:17;25.10;98.60
5200;DHT22;2619;47.868;11.892;2023-07-13T13:57:45;25.00;99.90
5200;DHT22;2619;47.868;11.892;2023-07-13T14:00:11;24.90;99.90
5200;DHT22;2619;47.868;11.892;2023-07-13T14:02:41;24.80;99.90
5200;DHT22;2619;47.868;11.892;2023-07-13T14:05:12;25.20;99.90
5200;DHT22;2619;47.868;11.892;2023-07-13T14:07:37;25.00;99.90
5200;DHT22;2619;47.868;11.892;2023-07-13T14:10:16;25.50;99.90
5200;DHT22;2619;47.868;11.892;2023-07-13T14:12:44;25.70;99.90
5200;DHT22;2619;47.868;11.892;2023-07-13T14:15:26;25.60;99.90
5200;DHT22;2619;47.868;11.892;2023-07-13T14:17:53;25.50;99.90
5200;DHT22;2619;47.868;11.892;2023-07-13T14:20:20;25.70;99.90
5200;DHT22;2619;47.868;11.892;2023-07-13T14:22:48;25.80;99.90
5200;DHT22;2619;47.868;11.892;2023-07-13T14:25:15;25.70;99.90
5200;DHT22;2619;47.868;11.892;2023-07-13T14:27:41;25.20;99.90
5200;DHT22;2619;47.868;11.892;2023-07-13T14:30:19;24.90;99.90
5200;DHT22;2619;47.868;11.892;2023-07-13T14:32:45;24.70;99.90
5200;DHT22;2619;47.868;11.892;2023-07-13T14:35:12;24.70;99.90
5200;DHT22;2619;47.868;11.892;2023-07-13T14:37:39;24.70;99.90
5200;DHT22;2619;47.868;11.892;2023-07-13T14:40:27;24.90;99.90
5200;DHT22;2619;47.868;11.892;2023-07-13T14:42:53;25.10;99.90
5200;DHT22;2619;47.868;11.892;2023-07-13T14:45:20;25.10;99.90
5200;DHT22;2619;47.868;11.892;2023-07-13T14:47:46;24.90;99.90
5200;DHT22;2619;47.868;11.892;2023-07-13T14:50:32;24.80;99.90
5200;DHT22;2619;47.868;11.892;2023-07-13T14:52:58;25.10;99.90
5200;DHT22;2619;47.868;11.892;2023-07-13T14:55:24;25.20;99.90
5200;DHT22;2619;47.868;11.892;2023-07-13T14:57:52;25.30;99.90
5200;DHT22;2619;47.868;11.892;2023-07-13T15:00:21;25.60;99.90
5200;DHT22;2619;47.868;11.892;2023-07-13T15:02:51;25.90;99.90
5200;DHT22;2619;47.868;11.892;2023-07-13T15:05:19;25.80;99.90
5200;DHT22;2619;47.868;11.892;2023-07-13T15:07:46;25.90;99.90
5200;DHT22;2619;47.868;11.892;2023-07-13T15:10:25;26.10;99.90
5200;DHT22;2619;47.868;11.892;2023-07-13T15:12:52;26.20;99.90
5200;DHT22;2619;47.868;11.892;2023-07-13T15:15:18;26.10;99.90
5200;DHT22;2619;47.868;11.892;2023-07-13T15:17:45;26.00;99.90
5200;DHT22;2619;47.868;11.892;2023-07-13T15:22:43;25.50;99.90
5200;DHT22;2619;47.868;11.892;2023-07-13T15:25:19;25.30;99.90
5200;DHT22;2619;47.868;11.892;2023-07-13T15:27:45;25.50;99.90
5200;DHT22;2619;47.868;11.892;2023-07-13T15:30:11;25.40;99.90
5200;DHT22;2619;47.868;11.892;2023-07-13T15:32:37;25.30;99.90
5200;DHT22;2619;47.868;11.892;2023-07-13T15:35:05;25.30;99.90
5200;DHT22;2619;47.868;11.892;2023-07-13T15:37:30;25.20;99.90
5200;DHT22;2619;47.868;11.892;2023-07-13T15:39:56;25.00;99.90
5200;DHT22;2619;47.868;11.892;2023-07-13T15:42:23;24.90;99.90
5200;DHT22;2619;47.868;11.892;2023-07-13T15:44:48;25.00;99.90
5200;DHT22;2619;47.868;11.892;2023-07-13T15:47:15;25.20;99.90
5200;DHT22;2619;47.868;11.892;2023-07-13T15:49:41;25.20;99.90
5200;DHT22;2619;47.868;11.892;2023-07-13T15:52:18;25.20;99.90
5200;DHT22;2619;47.868;11.892;2023-07-13T15:54:46;25.10;99.90
5200;DHT22;2619;47.868;11.892;2023-07-13T15:57:12;25.20;99.90
5200;DHT22;2619;47.868;11.892;2023-07-13T15:59:38;25.20;99.40
5200;DHT22;2619;47.868;11.892;2023-07-13T16:02:16;25.20;99.90
5200;DHT22;2619;47.868;11.892;2023-07-13T16:04:42;25.20;99.90
5200;DHT22;2619;47.868;11.892;2023-07-13T16:07:14;25.10;99.90
5200;DHT22;2619;47.868;11.892;2023-07-13T16:09:41;24.80;99.90
5200;DHT22;2619;47.868;11.892;2023-07-13T16:12:11;24.60;99.90
5200;DHT22;2619;47.868;11.892;2023-07-13T16:14:38;24.50;99.90
5200;DHT22;2619;47.868;11.892;2023-07-13T16:17:04;24.50;99.90
5200;DHT22;2619;47.868;11.892;2023-07-13T16:19:31;24.60;99.90
5200;DHT22;2619;47.868;11.892;2023-07-13T16:21:57;24.70;99.90
5200;DHT22;2619;47.868;11.892;2023-07-13T16:24:25;24.90;99.90
5200;DHT22;2619;47.868;11.892;2023-07-13T16:26:52;24.60;99.90
5200;DHT22;2619;47.868;11.892;2023-07-13T16:29:25;24.40;99.90
5200;DHT22;2619;47.868;11.892;2023-07-13T16:32:11;24.20;99.90